KJOT

Joliet Regional Airport

Joliet, Illinois, USA
METAR KJOT 210515Z AUTO 11004KT 2SM BR CLR 21/21 A2978 RMK AO2 T02090209
Observed Flight Rules
Aug-21 @ 05:15 UTC (9 hours ago) Instrument Flight Rules
Wind Visibility Clouds Conditions
110° at 4 knots 2 miles
  • Clear skies
  • Mist
Temperatures Readings
Current 21°C / 70°F
Dewpoint 21°C / 70°F
Humidity 100%
Altimeter 29.78" Hg
Pressure 1008 hPa
Elevation 177
METAR KJOT 210515Z AUTO 11004KT 2SM BR CLR 21/21 A2978 RMK AO2 T02090209
Observed Flight Rules
Aug-21 @ 05:15 UTC
(9 hours ago)
IFR
Wind Visibility
110° at 4 knots 2 miles
Clouds
  • Clear skies
Conditions
  • Mist
Temperature Dewpoint
21°C / 70°F 21°C / 70°F
Humidity Altimeter Pressure
100% 29.78" Hg 1008 hPa